sensor_id;sensor_type;location;lat;lon;timestamp;pressure;altitude;pressure_sealevel;temperature;humidity
79690;BME280;69156;55.932;-3.238;2023-04-25T00:00:35;101149.35;;;4.11;50.16
79690;BME280;69156;55.932;-3.238;2023-04-25T00:03:01;101147.70;;;3.97;50.71
79690;BME280;69156;55.932;-3.238;2023-04-25T00:05:27;101145.82;;;3.88;50.78
79690;BME280;69156;55.932;-3.238;2023-04-25T00:07:53;101145.98;;;3.83;50.81
79690;BME280;69156;55.932;-3.238;2023-04-25T00:10:19;101148.27;;;3.72;51.09
79690;BME280;69156;55.932;-3.238;2023-04-25T00:12:45;101151.32;;;3.75;50.79
79690;BME280;69156;55.932;-3.238;2023-04-25T00:15:11;101160.46;;;3.81;52.13
79690;BME280;69156;55.932;-3.238;2023-04-25T00:17:36;101160.09;;;3.67;52.48
79690;BME280;69156;55.932;-3.238;2023-04-25T00:20:02;101160.51;;;3.74;52.27
79690;BME280;69156;55.932;-3.238;2023-04-25T00:22:28;101160.94;;;3.68;51.80
79690;BME280;69156;55.932;-3.238;2023-04-25T00:24:53;101160.15;;;3.96;51.55
79690;BME280;69156;55.932;-3.238;2023-04-25T00:27:18;101158.62;;;3.83;50.98
79690;BME280;69156;55.932;-3.238;2023-04-25T00:29:43;101158.00;;;3.79;50.49
79690;BME280;69156;55.932;-3.238;2023-04-25T00:32:09;101155.27;;;3.86;49.89
79690;BME280;69156;55.932;-3.238;2023-04-25T00:34:35;101152.41;;;3.88;50.56
79690;BME280;69156;55.932;-3.238;2023-04-25T00:37:01;101149.74;;;3.62;50.45
79690;BME280;69156;55.932;-3.238;2023-04-25T00:39:26;101152.22;;;3.60;50.97
79690;BME280;69156;55.932;-3.238;2023-04-25T00:41:51;101153.42;;;3.75;51.40
79690;BME280;69156;55.932;-3.238;2023-04-25T00:44:17;101154.13;;;3.57;51.15
79690;BME280;69156;55.932;-3.238;2023-04-25T00:46:43;101152.66;;;3.44;52.10
79690;BME280;69156;55.932;-3.238;2023-04-25T00:49:08;101150.36;;;3.64;52.25
79690;BME280;69156;55.932;-3.238;2023-04-25T00:51:34;101149.91;;;3.70;51.77
79690;BME280;69156;55.932;-3.238;2023-04-25T00:54:00;101147.79;;;3.53;52.00
79690;BME280;69156;55.932;-3.238;2023-04-25T00:56:25;101145.11;;;3.28;51.72
79690;BME280;69156;55.932;-3.238;2023-04-25T00:58:53;101144.42;;;3.33;51.59
79690;BME280;69156;55.932;-3.238;2023-04-25T01:01:17;101143.59;;;3.40;52.17
79690;BME280;69156;55.932;-3.238;2023-04-25T01:03:43;101144.36;;;3.33;52.17
79690;BME280;69156;55.932;-3.238;2023-04-25T01:06:10;101149.22;;;3.20;51.93
79690;BME280;69156;55.932;-3.238;2023-04-25T01:08:35;101146.24;;;3.12;52.09
79690;BME280;69156;55.932;-3.238;2023-04-25T01:11:00;101145.34;;;3.19;53.67
79690;BME280;69156;55.932;-3.238;2023-04-25T01:13:25;101146.96;;;3.25;52.40
79690;BME280;69156;55.932;-3.238;2023-04-25T01:15:51;101148.32;;;3.10;52.20
79690;BME280;69156;55.932;-3.238;2023-04-25T01:18:17;101145.77;;;3.19;52.02
79690;BME280;69156;55.932;-3.238;2023-04-25T01:20:42;101144.94;;;3.21;52.24
79690;BME280;69156;55.932;-3.238;2023-04-25T01:23:08;101145.79;;;3.25;51.69
79690;BME280;69156;55.932;-3.238;2023-04-25T01:25:33;101148.40;;;3.16;51.70
79690;BME280;69156;55.932;-3.238;2023-04-25T01:27:59;101151.79;;;3.17;51.64
79690;BME280;69156;55.932;-3.238;2023-04-25T01:30:24;101150.96;;;3.25;51.40
79690;BME280;69156;55.932;-3.238;2023-04-25T01:32:49;101151.58;;;3.12;52.12
79690;BME280;69156;55.932;-3.238;2023-04-25T01:35:14;101154.61;;;3.34;52.06
79690;BME280;69156;55.932;-3.238;2023-04-25T01:37:40;101156.20;;;3.42;52.48
79690;BME280;69156;55.932;-3.238;2023-04-25T01:40:06;101154.53;;;3.21;51.93
79690;BME280;69156;55.932;-3.238;2023-04-25T01:42:30;101148.51;;;3.43;52.16
79690;BME280;69156;55.932;-3.238;2023-04-25T01:44:55;101145.84;;;3.49;51.77
79690;BME280;69156;55.932;-3.238;2023-04-25T01:47:21;101144.31;;;3.52;51.81
79690;BME280;69156;55.932;-3.238;2023-04-25T01:49:46;101143.34;;;3.33;51.96
79690;BME280;69156;55.932;-3.238;2023-04-25T01:52:12;101143.61;;;3.25;51.69
79690;BME280;69156;55.932;-3.238;2023-04-25T01:54:38;101145.36;;;3.44;51.14
79690;BME280;69156;55.932;-3.238;2023-04-25T01:57:03;101143.65;;;3.15;50.65
79690;BME280;69156;55.932;-3.238;2023-04-25T01:59:29;101143.01;;;3.29;50.36
79690;BME280;69156;55.932;-3.238;2023-04-25T02:01:54;101143.32;;;3.24;49.91
79690;BME280;69156;55.932;-3.238;2023-04-25T02:04:20;101140.91;;;3.26;50.11
79690;BME280;69156;55.932;-3.238;2023-04-25T02:06:45;101138.48;;;3.00;50.05
79690;BME280;69156;55.932;-3.238;2023-04-25T02:09:11;101137.34;;;3.14;50.12
79690;BME280;69156;55.932;-3.238;2023-04-25T02:11:37;101139.78;;;2.96;51.25
79690;BME280;69156;55.932;-3.238;2023-04-25T02:14:02;101143.79;;;2.86;51.78
79690;BME280;69156;55.932;-3.238;2023-04-25T02:16:27;101150.21;;;2.81;52.43
79690;BME280;69156;55.932;-3.238;2023-04-25T02:18:54;101150.76;;;2.80;53.26
79690;BME280;69156;55.932;-3.238;2023-04-25T02:21:19;101151.61;;;2.51;52.52
79690;BME280;69156;55.932;-3.238;2023-04-25T02:23:44;101150.08;;;2.76;52.99
79690;BME280;69156;55.932;-3.238;2023-04-25T02:26:10;101150.25;;;2.67;52.03
79690;BME280;69156;55.932;-3.238;2023-04-25T02:28:35;101148.82;;;2.54;52.46
79690;BME280;69156;55.932;-3.238;2023-04-25T02:31:00;101144.40;;;2.61;52.40
79690;BME280;69156;55.932;-3.238;2023-04-25T02:33:25;101146.69;;;2.61;51.88
79690;BME280;69156;55.932;-3.238;2023-04-25T02:35:51;101148.78;;;2.58;52.83
79690;BME280;69156;55.932;-3.238;2023-04-25T02:38:17;101149.81;;;2.50;52.88
79690;BME280;69156;55.932;-3.238;2023-04-25T02:40:42;101155.67;;;2.70;53.16
79690;BME280;69156;55.932;-3.238;2023-04-25T02:43:08;101154.30;;;2.47;53.43
79690;BME280;69156;55.932;-3.238;2023-04-25T02:45:34;101157.59;;;2.59;53.41
79690;BME280;69156;55.932;-3.238;2023-04-25T02:48:00;101166.62;;;2.31;53.10
79690;BME280;69156;55.932;-3.238;2023-04-25T02:50:26;101165.36;;;2.21;53.58
79690;BME280;69156;55.932;-3.238;2023-04-25T02:52:52;101163.82;;;2.49;53.42
79690;BME280;69156;55.932;-3.238;2023-04-25T02:55:17;101162.12;;;2.27;53.59
79690;BME280;69156;55.932;-3.238;2023-04-25T02:57:42;101157.90;;;2.55;53.77
79690;BME280;69156;55.932;-3.238;2023-04-25T03:00:09;101158.65;;;2.41;52.94
79690;BME280;69156;55.932;-3.238;2023-04-25T03:02:34;101158.93;;;2.53;53.04
79690;BME280;69156;55.932;-3.238;2023-04-25T03:05:00;101155.83;;;2.39;52.83
79690;BME280;69156;55.932;-3.238;2023-04-25T03:07:25;101159.40;;;2.43;52.44
79690;BME280;69156;55.932;-3.238;2023-04-25T03:09:50;101165.76;;;2.53;52.71
79690;BME280;69156;55.932;-3.238;2023-04-25T03:12:15;101168.25;;;2.21;52.85
79690;BME280;69156;55.932;-3.238;2023-04-25T03:14:40;101168.88;;;2.59;54.19
79690;BME280;69156;55.932;-3.238;2023-04-25T03:17:06;101166.51;;;2.22;53.75
79690;BME280;69156;55.932;-3.238;2023-04-25T03:19:31;101165.35;;;2.25;54.20
79690;BME280;69156;55.932;-3.238;2023-04-25T03:21:57;101160.67;;;2.52;53.77
79690;BME280;69156;55.932;-3.238;2023-04-25T03:24:23;101156.70;;;2.09;54.09
79690;BME280;69156;55.932;-3.238;2023-04-25T03:26:48;101158.18;;;2.24;54.20
79690;BME280;69156;55.932;-3.238;2023-04-25T03:29:14;101161.10;;;2.45;54.45
79690;BME280;69156;55.932;-3.238;2023-04-25T03:31:40;101164.57;;;2.17;54.58
79690;BME280;69156;55.932;-3.238;2023-04-25T03:34:06;101165.87;;;2.19;53.97
79690;BME280;69156;55.932;-3.238;2023-04-25T03:36:31;101162.17;;;2.31;54.30
79690;BME280;69156;55.932;-3.238;2023-04-25T03:38:56;101156.39;;;2.17;53.31
79690;BME280;69156;55.932;-3.238;2023-04-25T03:41:22;101161.36;;;2.17;52.94
79690;BME280;69156;55.932;-3.238;2023-04-25T03:43:47;101157.85;;;2.09;54.04
79690;BME280;69156;55.932;-3.238;2023-04-25T03:46:13;101156.35;;;2.37;53.51
79690;BME280;69156;55.932;-3.238;2023-04-25T03:48:39;101156.71;;;2.40;53.71
79690;BME280;69156;55.932;-3.238;2023-04-25T03:51:04;101152.45;;;2.40;53.63
79690;BME280;69156;55.932;-3.238;2023-04-25T03:53:31;101150.77;;;2.22;53.10
79690;BME280;69156;55.932;-3.238;2023-04-25T03:55:57;101148.94;;;2.27;52.70
79690;BME280;69156;55.932;-3.238;2023-04-25T03:58:22;101149.57;;;2.21;52.68
79690;BME280;69156;55.932;-3.238;2023-04-25T04:00:48;101147.44;;;2.18;52.98
79690;BME280;69156;55.932;-3.238;2023-04-25T04:03:13;101150.43;;;2.27;52.14
79690;BME280;69156;55.932;-3.238;2023-04-25T04:05:39;101154.20;;;2.23;52.22
79690;BME280;69156;55.932;-3.238;2023-04-25T04:08:05;101154.71;;;2.16;52.24
79690;BME280;69156;55.932;-3.238;2023-04-25T04:10:31;101157.45;;;2.30;52.67
79690;BME280;69156;55.932;-3.238;2023-04-25T04:12:57;101161.61;;;2.25;52.77
79690;BME280;69156;55.932;-3.238;2023-04-25T04:15:22;101160.95;;;2.36;53.10
79690;BME280;69156;55.932;-3.238;2023-04-25T04:17:48;101164.69;;;2.28;53.27
79690;BME280;69156;55.932;-3.238;2023-04-25T04:20:13;101169.95;;;2.39;52.90
79690;BME280;69156;55.932;-3.238;2023-04-25T04:22:39;101168.27;;;2.09;52.94
79690;BME280;69156;55.932;-3.238;2023-04-25T04:25:05;101168.98;;;2.22;53.63
79690;BME280;69156;55.932;-3.238;2023-04-25T04:27:31;101172.94;;;2.28;53.45
79690;BME280;69156;55.932;-3.238;2023-04-25T04:29:57;101168.88;;;2.22;53.59
79690;BME280;69156;55.932;-3.238;2023-04-25T04:32:22;101168.87;;;2.22;53.44
79690;BME280;69156;55.932;-3.238;2023-04-25T04:34:48;101172.33;;;2.33;52.62
79690;BME280;69156;55.932;-3.238;2023-04-25T04:37:13;101175.04;;;2.05;53.78
79690;BME280;69156;55.932;-3.238;2023-04-25T04:39:38;101175.04;;;2.22;53.94
79690;BME280;69156;55.932;-3.238;2023-04-25T04:42:04;101177.52;;;2.32;53.34
79690;BME280;69156;55.932;-3.238;2023-04-25T04:44:30;101174.65;;;1.96;53.53
79690;BME280;69156;55.932;-3.238;2023-04-25T04:46:55;101171.99;;;2.28;53.22
79690;BME280;69156;55.932;-3.238;2023-04-25T04:49:21;101174.27;;;2.17;53.10
79690;BME280;69156;55.932;-3.238;2023-04-25T04:51:46;101172.70;;;2.25;53.16
79690;BME280;69156;55.932;-3.238;2023-04-25T04:54:11;101172.00;;;2.23;52.96
79690;BME280;69156;55.932;-3.238;2023-04-25T04:56:37;101173.24;;;1.96;52.99
79690;BME280;69156;55.932;-3.238;2023-04-25T04:59:03;101173.80;;;2.00;53.01
79690;BME280;69156;55.932;-3.238;2023-04-25T05:01:28;101176.76;;;1.80;53.30
79690;BME280;69156;55.932;-3.238;2023-04-25T05:03:54;101169.26;;;1.89;53.14
79690;BME280;69156;55.932;-3.238;2023-04-25T05:06:19;101166.79;;;1.80;53.45
79690;BME280;69156;55.932;-3.238;2023-04-25T05:08:44;101164.50;;;1.97;53.65
79690;BME280;69156;55.932;-3.238;2023-04-25T05:11:09;101167.32;;;1.84;53.61
79690;BME280;69156;55.932;-3.238;2023-04-25T05:13:35;101174.14;;;1.64;53.22
79690;BME280;69156;55.932;-3.238;2023-04-25T05:16:00;101180.45;;;1.68;53.32
79690;BME280;69156;55.932;-3.238;2023-04-25T05:18:26;101182.34;;;1.88;53.36
79690;BME280;69156;55.932;-3.238;2023-04-25T05:20:51;101182.14;;;1.99;53.02
79690;BME280;69156;55.932;-3.238;2023-04-25T05:23:18;101189.27;;;1.70;52.90
79690;BME280;69156;55.932;-3.238;2023-04-25T05:25:43;101191.94;;;1.86;53.18
79690;BME280;69156;55.932;-3.238;2023-04-25T05:28:08;101189.48;;;1.84;52.49
79690;BME280;69156;55.932;-3.238;2023-04-25T05:30:34;101190.68;;;1.98;52.45
79690;BME280;69156;55.932;-3.238;2023-04-25T05:32:58;101194.11;;;2.27;52.70
79690;BME280;69156;55.932;-3.238;2023-04-25T05:35:24;101191.89;;;2.21;52.15
79690;BME280;69156;55.932;-3.238;2023-04-25T05:37:49;101189.31;;;2.34;52.10
79690;BME280;69156;55.932;-3.238;2023-04-25T05:40:14;101189.44;;;2.26;52.11
79690;BME280;69156;55.932;-3.238;2023-04-25T05:42:40;101192.99;;;2.45;51.86
79690;BME280;69156;55.932;-3.238;2023-04-25T05:45:06;101198.90;;;2.52;52.40
79690;BME280;69156;55.932;-3.238;2023-04-25T05:47:32;101201.64;;;2.72;51.96
79690;BME280;69156;55.932;-3.238;2023-04-25T05:49:58;101201.10;;;2.29;52.21
79690;BME280;69156;55.932;-3.238;2023-04-25T05:52:23;101198.79;;;2.32;52.16
79690;BME280;69156;55.932;-3.238;2023-04-25T05:54:49;101202.94;;;2.35;52.27
79690;BME280;69156;55.932;-3.238;2023-04-25T05:57:23;101203.62;;;2.39;51.82
79690;BME280;69156;55.932;-3.238;2023-04-25T05:59:40;101204.57;;;2.33;52.07
79690;BME280;69156;55.932;-3.238;2023-04-25T06:02:06;101201.23;;;2.55;51.91
79690;BME280;69156;55.932;-3.238;2023-04-25T06:04:31;101204.23;;;2.65;51.57
79690;BME280;69156;55.932;-3.238;2023-04-25T06:06:56;101208.81;;;2.83;51.22
79690;BME280;69156;55.932;-3.238;2023-04-25T06:09:22;101206.17;;;2.86;51.28
79690;BME280;69156;55.932;-3.238;2023-04-25T06:11:47;101202.64;;;2.83;51.00
79690;BME280;69156;55.932;-3.238;2023-04-25T06:14:13;101205.38;;;2.82;50.82
79690;BME280;69156;55.932;-3.238;2023-04-25T06:16:38;101205.46;;;3.03;51.19
79690;BME280;69156;55.932;-3.238;2023-04-25T06:19:04;101203.88;;;3.01;50.47
79690;BME280;69156;55.932;-3.238;2023-04-25T06:21:30;101212.27;;;3.12;50.26
79690;BME280;69156;55.932;-3.238;2023-04-25T06:23:56;101212.81;;;3.21;50.02
79690;BME280;69156;55.932;-3.238;2023-04-25T06:26:21;101208.33;;;3.22;50.51
79690;BME280;69156;55.932;-3.238;2023-04-25T06:28:47;101206.41;;;3.37;49.99
79690;BME280;69156;55.932;-3.238;2023-04-25T06:31:14;101206.59;;;3.28;49.87
79690;BME280;69156;55.932;-3.238;2023-04-25T06:33:39;101200.50;;;3.46;49.76
79690;BME280;69156;55.932;-3.238;2023-04-25T06:36:05;101199.84;;;3.52;49.70
79690;BME280;69156;55.932;-3.238;2023-04-25T06:38:30;101203.98;;;3.49;49.37
79690;BME280;69156;55.932;-3.238;2023-04-25T06:40:56;101207.93;;;3.68;49.09
79690;BME280;69156;55.932;-3.238;2023-04-25T06:43:21;101206.59;;;3.70;48.76
79690;BME280;69156;55.932;-3.238;2023-04-25T06:45:46;101202.82;;;3.82;48.64
79690;BME280;69156;55.932;-3.238;2023-04-25T06:48:12;101205.28;;;3.88;48.43
79690;BME280;69156;55.932;-3.238;2023-04-25T06:50:38;101208.67;;;3.88;47.76
79690;BME280;69156;55.932;-3.238;2023-04-25T06:53:04;101210.43;;;3.91;48.34
79690;BME280;69156;55.932;-3.238;2023-04-25T06:55:29;101214.47;;;3.65;47.95
79690;BME280;69156;55.932;-3.238;2023-04-25T06:57:55;101211.07;;;4.16;47.64
79690;BME280;69156;55.932;-3.238;2023-04-25T07:00:21;101210.27;;;4.32;47.58
79690;BME280;69156;55.932;-3.238;2023-04-25T07:02:46;101211.15;;;4.31;47.26
79690;BME280;69156;55.932;-3.238;2023-04-25T07:05:11;101214.02;;;4.54;46.39
79690;BME280;69156;55.932;-3.238;2023-04-25T07:07:37;101219.62;;;4.53;46.75
79690;BME280;69156;55.932;-3.238;2023-04-25T07:10:03;101218.64;;;4.28;47.12
79690;BME280;69156;55.932;-3.238;2023-04-25T07:12:28;101213.15;;;4.37;47.46
79690;BME280;69156;55.932;-3.238;2023-04-25T07:14:54;101215.86;;;4.35;47.28
79690;BME280;69156;55.932;-3.238;2023-04-25T07:17:20;101214.00;;;4.30;47.12
79690;BME280;69156;55.932;-3.238;2023-04-25T07:19:46;101217.49;;;4.37;47.11
79690;BME280;69156;55.932;-3.238;2023-04-25T07:22:11;101224.60;;;4.77;46.57
79690;BME280;69156;55.932;-3.238;2023-04-25T07:24:37;101225.34;;;5.01;45.38
79690;BME280;69156;55.932;-3.238;2023-04-25T07:27:02;101225.96;;;5.00;45.89
79690;BME280;69156;55.932;-3.238;2023-04-25T07:29:30;101227.46;;;4.74;45.70
79690;BME280;69156;55.932;-3.238;2023-04-25T07:31:53;101230.35;;;4.76;45.92
79690;BME280;69156;55.932;-3.238;2023-04-25T07:34:18;101234.38;;;4.67;46.29
79690;BME280;69156;55.932;-3.238;2023-04-25T07:36:43;101235.26;;;4.81;46.19
79690;BME280;69156;55.932;-3.238;2023-04-25T07:39:08;101235.42;;;4.90;45.38
79690;BME280;69156;55.932;-3.238;2023-04-25T07:41:33;101237.53;;;5.10;44.87
79690;BME280;69156;55.932;-3.238;2023-04-25T07:43:59;101237.57;;;5.04;45.30
79690;BME280;69156;55.932;-3.238;2023-04-25T07:46:24;101246.51;;;5.51;45.09
79690;BME280;69156;55.932;-3.238;2023-04-25T07:48:49;101248.56;;;5.07;45.52
79690;BME280;69156;55.932;-3.238;2023-04-25T07:51:15;101247.60;;;5.39;44.75
79690;BME280;69156;55.932;-3.238;2023-04-25T07:53:41;101248.56;;;5.57;43.90
79690;BME280;69156;55.932;-3.238;2023-04-25T07:56:06;101244.38;;;5.42;43.95
79690;BME280;69156;55.932;-3.238;2023-04-25T07:58:32;101241.86;;;5.46;43.89
79690;BME280;69156;55.932;-3.238;2023-04-25T08:00:57;101243.47;;;5.72;44.10
79690;BME280;69156;55.932;-3.238;2023-04-25T08:03:22;101241.50;;;5.72;42.73
79690;BME280;69156;55.932;-3.238;2023-04-25T08:05:48;101243.83;;;5.77;42.73
79690;BME280;69156;55.932;-3.238;2023-04-25T08:08:14;101243.56;;;5.66;43.49
79690;BME280;69156;55.932;-3.238;2023-04-25T08:10:39;101246.89;;;5.66;43.62
79690;BME280;69156;55.932;-3.238;2023-04-25T08:13:05;101243.67;;;5.66;43.03
79690;BME280;69156;55.932;-3.238;2023-04-25T08:15:31;101242.98;;;5.94;42.98
79690;BME280;69156;55.932;-3.238;2023-04-25T08:17:56;101241.53;;;6.10;42.96
79690;BME280;69156;55.932;-3.238;2023-04-25T08:20:22;101243.53;;;6.19;42.79
79690;BME280;69156;55.932;-3.238;2023-04-25T08:22:48;101245.78;;;6.12;41.99
79690;BME280;69156;55.932;-3.238;2023-04-25T08:25:13;101250.25;;;6.28;41.41
79690;BME280;69156;55.932;-3.238;2023-04-25T08:27:38;101249.61;;;6.41;40.09
79690;BME280;69156;55.932;-3.238;2023-04-25T08:30:05;101250.13;;;6.51;39.39
79690;BME280;69156;55.932;-3.238;2023-04-25T08:32:30;101248.27;;;6.64;38.70
79690;BME280;69156;55.932;-3.238;2023-04-25T08:34:55;101252.46;;;6.34;38.95
79690;BME280;69156;55.932;-3.238;2023-04-25T08:37:21;101251.64;;;6.54;39.81
79690;BME280;69156;55.932;-3.238;2023-04-25T08:39:47;101254.84;;;6.57;38.59
79690;BME280;69156;55.932;-3.238;2023-04-25T08:42:12;101254.33;;;6.57;38.10
79690;BME280;69156;55.932;-3.238;2023-04-25T08:44:38;101257.69;;;6.45;39.07
79690;BME280;69156;55.932;-3.238;2023-04-25T08:47:04;101257.62;;;6.43;39.21
79690;BME280;69156;55.932;-3.238;2023-04-25T08:49:31;101259.04;;;6.70;38.90
79690;BME280;69156;55.932;-3.238;2023-04-25T08:51:58;101260.76;;;6.72;38.94
79690;BME280;69156;55.932;-3.238;2023-04-25T08:54:21;101260.65;;;7.01;38.29
79690;BME280;69156;55.932;-3.238;2023-04-25T08:56:48;101259.26;;;6.92;38.30
79690;BME280;69156;55.932;-3.238;2023-04-25T08:59:12;101259.40;;;7.04;38.52
79690;BME280;69156;55.932;-3.238;2023-04-25T09:01:37;101256.79;;;7.03;38.50
79690;BME280;69156;55.932;-3.238;2023-04-25T09:04:02;101259.28;;;6.94;38.38
79690;BME280;69156;55.932;-3.238;2023-04-25T09:06:29;101260.32;;;6.73;39.42
79690;BME280;69156;55.932;-3.238;2023-04-25T09:09:02;101261.13;;;6.69;39.28
79690;BME280;69156;55.932;-3.238;2023-04-25T09:11:21;101265.83;;;7.21;37.62
79690;BME280;69156;55.932;-3.238;2023-04-25T09:13:46;101266.11;;;7.20;37.09
79690;BME280;69156;55.932;-3.238;2023-04-25T09:16:11;101264.47;;;6.88;37.95
79690;BME280;69156;55.932;-3.238;2023-04-25T09:18:37;101263.69;;;6.96;37.35
79690;BME280;69156;55.932;-3.238;2023-04-25T09:21:06;101260.43;;;7.14;37.02
79690;BME280;69156;55.932;-3.238;2023-04-25T09:23:28;101263.03;;;7.59;36.02
79690;BME280;69156;55.932;-3.238;2023-04-25T09:25:54;101259.47;;;7.37;36.74
79690;BME280;69156;55.932;-3.238;2023-04-25T09:28:23;101260.62;;;7.32;36.97
79690;BME280;69156;55.932;-3.238;2023-04-25T09:30:46;101259.39;;;7.72;36.40
79690;BME280;69156;55.932;-3.238;2023-04-25T09:33:11;101257.25;;;7.82;36.79
79690;BME280;69156;55.932;-3.238;2023-04-25T09:35:37;101248.70;;;7.78;36.28
79690;BME280;69156;55.932;-3.238;2023-04-25T09:38:01;101258.04;;;7.74;32.93
79690;BME280;69156;55.932;-3.238;2023-04-25T09:40:27;101255.15;;;7.07;35.26
79690;BME280;69156;55.932;-3.238;2023-04-25T09:42:52;101252.81;;;7.18;35.28
79690;BME280;69156;55.932;-3.238;2023-04-25T09:45:17;101250.11;;;7.27;36.13
79690;BME280;69156;55.932;-3.238;2023-04-25T09:47:43;101252.20;;;7.49;35.17
79690;BME280;69156;55.932;-3.238;2023-04-25T09:50:14;101249.10;;;7.66;36.52
79690;BME280;69156;55.932;-3.238;2023-04-25T09:52:34;101249.79;;;7.64;35.86
79690;BME280;69156;55.932;-3.238;2023-04-25T09:55:00;101242.47;;;7.62;36.43
79690;BME280;69156;55.932;-3.238;2023-04-25T09:57:26;101252.85;;;8.06;36.47
79690;BME280;69156;55.932;-3.238;2023-04-25T09:59:52;101257.62;;;8.08;34.00
79690;BME280;69156;55.932;-3.238;2023-04-25T10:02:18;101261.26;;;7.89;34.62
79690;BME280;69156;55.932;-3.238;2023-04-25T10:04:43;101257.12;;;7.81;34.20
79690;BME280;69156;55.932;-3.238;2023-04-25T10:07:09;101254.00;;;7.74;35.54
79690;BME280;69156;55.932;-3.238;2023-04-25T10:09:36;101250.86;;;8.02;34.27
79690;BME280;69156;55.932;-3.238;2023-04-25T10:11:59;101254.79;;;7.92;34.04
79690;BME280;69156;55.932;-3.238;2023-04-25T10:14:25;101253.35;;;7.87;33.71
79690;BME280;69156;55.932;-3.238;2023-04-25T10:16:50;101256.83;;;7.73;33.75
79690;BME280;69156;55.932;-3.238;2023-04-25T10:19:16;101258.71;;;7.58;33.43
79690;BME280;69156;55.932;-3.238;2023-04-25T10:21:48;101262.09;;;7.58;34.53
79690;BME280;69156;55.932;-3.238;2023-04-25T10:24:07;101259.14;;;8.00;34.20
79690;BME280;69156;55.932;-3.238;2023-04-25T10:26:32;101261.60;;;8.04;34.07
79690;BME280;69156;55.932;-3.238;2023-04-25T10:29:00;101261.54;;;7.93;33.30
79690;BME280;69156;55.932;-3.238;2023-04-25T10:31:24;101260.70;;;8.15;33.67
79690;BME280;69156;55.932;-3.238;2023-04-25T10:33:49;101255.66;;;8.11;33.87
79690;BME280;69156;55.932;-3.238;2023-04-25T10:36:17;101249.41;;;8.15;32.95
79690;BME280;69156;55.932;-3.238;2023-04-25T10:38:42;101249.49;;;8.16;33.58
79690;BME280;69156;55.932;-3.238;2023-04-25T10:41:07;101246.17;;;8.32;33.16
79690;BME280;69156;55.932;-3.238;2023-04-25T10:43:36;101246.49;;;8.51;32.63
79690;BME280;69156;55.932;-3.238;2023-04-25T10:45:56;101249.05;;;8.70;30.88
79690;BME280;69156;55.932;-3.238;2023-04-25T10:48:25;101250.74;;;8.28;31.41
79690;BME280;69156;55.932;-3.238;2023-04-25T10:50:47;101246.89;;;8.18;32.07
79690;BME280;69156;55.932;-3.238;2023-04-25T10:53:15;101247.19;;;8.01;32.30
79690;BME280;69156;55.932;-3.238;2023-04-25T10:55:49;101241.47;;;8.48;31.80
79690;BME280;69156;55.932;-3.238;2023-04-25T10:58:04;101236.48;;;8.46;31.55
79690;BME280;69156;55.932;-3.238;2023-04-25T11:00:30;101242.77;;;8.22;31.86
79690;BME280;69156;55.932;-3.238;2023-04-25T11:02:58;101238.80;;;7.91;31.98
79690;BME280;69156;55.932;-3.238;2023-04-25T11:05:32;101236.61;;;7.80;32.18
79690;BME280;69156;55.932;-3.238;2023-04-25T11:07:50;101232.20;;;7.94;31.58
79690;BME280;69156;55.932;-3.238;2023-04-25T11:10:10;101229.99;;;8.42;31.89
79690;BME280;69156;55.932;-3.238;2023-04-25T11:12:35;101229.02;;;8.58;32.20
79690;BME280;69156;55.932;-3.238;2023-04-25T11:15:03;101217.20;;;8.59;32.40
79690;BME280;69156;55.932;-3.238;2023-04-25T11:17:28;101220.90;;;8.91;30.99
79690;BME280;69156;55.932;-3.238;2023-04-25T11:19:54;101222.15;;;8.94;30.78
79690;BME280;69156;55.932;-3.238;2023-04-25T11:22:21;101225.93;;;8.84;30.39
79690;BME280;69156;55.932;-3.238;2023-04-25T11:24:44;101220.45;;;8.98;30.02
79690;BME280;69156;55.932;-3.238;2023-04-25T11:27:09;101226.47;;;8.84;30.37
79690;BME280;69156;55.932;-3.238;2023-04-25T11:29:35;101225.58;;;8.88;30.36
79690;BME280;69156;55.932;-3.238;2023-04-25T11:32:01;101220.88;;;9.13;30.10
79690;BME280;69156;55.932;-3.238;2023-04-25T11:34:26;101225.61;;;9.27;29.47
79690;BME280;69156;55.932;-3.238;2023-04-25T11:36:51;101217.63;;;8.90;30.67
79690;BME280;69156;55.932;-3.238;2023-04-25T11:39:16;101216.85;;;9.43;30.75
79690;BME280;69156;55.932;-3.238;2023-04-25T11:41:42;101214.76;;;9.75;29.38
79690;BME280;69156;55.932;-3.238;2023-04-25T11:44:07;101212.34;;;9.89;30.68
79690;BME280;69156;55.932;-3.238;2023-04-25T11:46:34;101215.67;;;9.94;28.17
79690;BME280;69156;55.932;-3.238;2023-04-25T11:48:57;101225.60;;;9.64;28.46
79690;BME280;69156;55.932;-3.238;2023-04-25T11:51:23;101224.62;;;9.20;28.97
79690;BME280;69156;55.932;-3.238;2023-04-25T11:53:48;101223.00;;;9.00;29.27
79690;BME280;69156;55.932;-3.238;2023-04-25T11:56:15;101224.24;;;8.92;30.27
79690;BME280;69156;55.932;-3.238;2023-04-25T11:58:57;101223.13;;;9.05;30.29
79690;BME280;69156;55.932;-3.238;2023-04-25T12:01:05;101221.75;;;8.82;30.25
79690;BME280;69156;55.932;-3.238;2023-04-25T12:03:31;101221.32;;;9.15;30.50
79690;BME280;69156;55.932;-3.238;2023-04-25T12:06:02;101222.11;;;9.29;30.21
79690;BME280;69156;55.932;-3.238;2023-04-25T12:08:22;101221.26;;;8.93;30.09
79690;BME280;69156;55.932;-3.238;2023-04-25T12:10:48;101222.57;;;8.99;30.33
79690;BME280;69156;55.932;-3.238;2023-04-25T12:13:22;101219.34;;;9.16;29.50
79690;BME280;69156;55.932;-3.238;2023-04-25T12:15:40;101219.26;;;8.98;30.59
79690;BME280;69156;55.932;-3.238;2023-04-25T12:18:04;101215.33;;;9.38;30.74
79690;BME280;69156;55.932;-3.238;2023-04-25T12:20:31;101218.55;;;9.54;30.37
79690;BME280;69156;55.932;-3.238;2023-04-25T12:22:57;101215.73;;;9.78;29.59
79690;BME280;69156;55.932;-3.238;2023-04-25T12:25:38;101218.93;;;9.77;29.87
79690;BME280;69156;55.932;-3.238;2023-04-25T12:27:46;101220.24;;;9.77;29.76
79690;BME280;69156;55.932;-3.238;2023-04-25T12:30:12;101225.83;;;9.41;28.60
79690;BME280;69156;55.932;-3.238;2023-04-25T12:32:38;101220.16;;;9.15;29.94
79690;BME280;69156;55.932;-3.238;2023-04-25T12:35:04;101216.52;;;9.40;29.35
79690;BME280;69156;55.932;-3.238;2023-04-25T12:37:28;101220.15;;;9.34;29.14
79690;BME280;69156;55.932;-3.238;2023-04-25T12:39:54;101222.51;;;9.34;29.56